createdAt,value
2022-09-26T06:28:13.053Z,23.92
2022-09-26T06:30:40.134Z,24.45
2022-09-26T06:33:13.587Z,24.65
2022-09-26T06:36:05.593Z,26.75
2022-09-26T06:38:35.635Z,35.13
2022-09-26T06:41:04.343Z,35.15
2022-09-26T06:43:31.439Z,36.03
2022-09-26T06:46:16.858Z,34.92
2022-09-26T06:51:20.446Z,36.28
2022-09-26T06:53:50.341Z,43.75
2022-09-26T06:56:20.778Z,41.53
2022-09-26T06:58:50.476Z,44.58
2022-09-26T07:01:23.784Z,44.30
2022-09-26T07:04:01.426Z,44.25
2022-09-26T07:06:59.774Z,46.90
2022-09-26T07:09:27.186Z,44.65
2022-09-26T07:12:14.287Z,43.35
2022-09-26T07:14:42.821Z,45.33
2022-09-26T07:17:27.208Z,43.35
2022-09-26T07:20:20.402Z,45.10
2022-09-26T07:23:02.651Z,46.22
2022-09-26T07:25:31.818Z,45.05
2022-09-26T07:28:00.795Z,45.53
2022-09-26T07:30:36.045Z,46.35
2022-09-26T07:33:09.385Z,44.40
2022-09-26T07:35:46.604Z,45.55
2022-09-26T07:38:13.688Z,45.67
2022-09-26T07:40:43.301Z,42.90
2022-09-26T07:43:27.357Z,46.13
2022-09-26T07:46:19.289Z,42.75
2022-09-26T07:49:08.780Z,41.95
2022-09-26T07:51:57.629Z,39.20
2022-09-26T07:54:35.754Z,43.83
2022-09-26T07:57:25.812Z,43.72
2022-09-26T08:00:14.577Z,42.97
2022-09-26T08:02:50.796Z,44.25
2022-09-26T08:05:23.407Z,47.95
2022-09-26T08:07:51.869Z,41.10
2022-09-26T08:10:37.508Z,44.63
2022-09-26T08:13:22.864Z,37.25
2022-09-26T08:16:08.391Z,37.63
2022-09-26T08:18:40.295Z,39.80
2022-09-26T08:21:07.524Z,40.40
2022-09-26T08:23:35.432Z,40.45
2022-09-26T08:26:44.416Z,39.45
2022-09-26T08:29:34.150Z,39.63
2022-09-26T08:32:04.218Z,39.45
2022-09-26T08:34:35.084Z,38.60
2022-09-26T08:37:21.061Z,37.00
2022-09-26T08:40:07.348Z,38.13
2022-09-26T08:43:11.466Z,38.78
2022-09-26T08:46:13.283Z,36.58
2022-09-26T08:48:53.937Z,38.40
2022-09-26T08:51:40.113Z,40.88
2022-09-26T08:54:19.707Z,39.25
2022-09-26T08:57:05.889Z,37.67
2022-09-26T08:59:42.617Z,37.97
2022-09-26T09:02:37.862Z,36.05
2022-09-26T09:05:51.117Z,34.67
2022-09-26T09:08:25.276Z,35.20
2022-09-26T09:14:00.072Z,32.05
2022-09-26T09:17:14.042Z,31.13
2022-09-26T09:20:10.430Z,31.20
2022-09-26T09:23:29.796Z,32.53
2022-09-26T09:29:10.539Z,31.50
2022-09-26T09:31:41.714Z,30.95
2022-09-26T09:34:41.573Z,31.65
2022-09-26T09:37:34.001Z,27.70
2022-09-26T09:40:48.325Z,28.00
2022-09-26T09:43:39.068Z,26.35
2022-09-26T09:46:25.060Z,28.05
2022-09-26T09:49:16.079Z,28.50
2022-09-26T09:52:02.465Z,26.10
2022-09-26T09:54:59.437Z,28.17
2022-09-26T09:57:33.171Z,25.38
2022-09-26T10:00:17.422Z,26.13
2022-09-26T10:03:25.529Z,25.48
2022-09-26T10:08:37.467Z,28.25
2022-09-26T10:11:13.261Z,25.17
2022-09-26T10:14:06.079Z,26.83
2022-09-26T10:17:14.803Z,27.85
2022-09-26T10:20:00.317Z,26.05
2022-09-26T10:22:37.425Z,25.27
2022-09-26T10:25:08.451Z,24.40
2022-09-26T10:27:38.165Z,26.20
2022-09-26T10:30:30.297Z,25.38
2022-09-26T10:33:05.025Z,22.05
2022-09-26T10:36:16.688Z,20.58
2022-09-26T10:39:10.951Z,20.92
2022-09-26T10:41:40.588Z,19.15
2022-09-26T10:44:27.737Z,15.77
2022-09-26T10:47:24.779Z,21.70
2022-09-26T10:50:29.414Z,17.10
2022-09-26T10:53:37.077Z,20.98
2022-09-26T10:56:20.653Z,22.95
2022-09-26T10:58:52.027Z,20.90
2022-09-26T11:01:26.843Z,19.20
2022-09-26T11:03:56.164Z,19.13
2022-09-26T11:06:26.817Z,19.98
2022-09-26T11:09:02.495Z,19.58
2022-09-26T11:11:51.705Z,22.15
2022-09-26T11:14:29.275Z,20.33
2022-09-26T11:17:11.701Z,19.90
2022-09-26T11:19:53.926Z,19.98
2022-09-26T11:22:31.373Z,22.83
2022-09-26T11:25:26.896Z,22.95
2022-09-26T11:28:15.541Z,25.08
2022-09-26T11:31:24.974Z,23.77
2022-09-26T11:34:17.688Z,22.20
2022-09-26T11:37:11.045Z,21.88
2022-09-26T11:40:09.824Z,20.80
2022-09-26T11:43:05.268Z,20.95
2022-09-26T11:45:52.634Z,19.42
2022-09-26T11:49:30.857Z,19.75
2022-09-26T11:52:55.271Z,15.77
2022-09-26T11:55:57.085Z,19.80
2022-09-26T11:58:50.073Z,10.77
2022-09-26T12:01:50.122Z,11.95
2022-09-26T12:04:34.913Z,14.13
2022-09-26T12:07:21.628Z,13.07
2022-09-26T12:10:00.256Z,12.50
2022-09-26T12:12:31.863Z,11.52
2022-09-26T12:15:29.251Z,11.73
2022-09-26T12:18:13.418Z,11.63
2022-09-26T12:21:08.905Z,11.77
2022-09-26T12:23:52.916Z,9.73
2022-09-26T12:26:44.109Z,9.77
2022-09-26T12:29:29.623Z,8.50
2022-09-26T12:32:34.143Z,10.25
2022-09-26T12:35:28.031Z,11.85
2022-09-26T12:38:47.116Z,12.25
2022-09-26T12:41:34.258Z,12.23
2022-09-26T12:44:22.404Z,15.60
2022-09-26T12:47:07.073Z,13.82
2022-09-26T12:49:58.212Z,13.90
2022-09-26T12:52:34.177Z,11.70
2022-09-26T12:55:19.600Z,13.48
2022-09-26T12:58:03.126Z,12.18
2022-09-26T13:00:45.672Z,12.73
2022-09-26T13:03:26.617Z,11.85
2022-09-26T13:06:18.552Z,12.25
2022-09-26T13:08:58.545Z,13.70
2022-09-26T13:11:37.418Z,11.48
2022-09-26T13:14:27.373Z,13.93
2022-09-26T13:17:14.033Z,14.63
2022-09-26T13:19:48.216Z,15.13
2022-09-26T13:22:26.025Z,14.50
2022-09-26T13:25:10.783Z,14.95
2022-09-26T13:27:44.339Z,16.52
2022-09-26T13:30:25.336Z,15.00
2022-09-26T13:33:00.099Z,14.18
2022-09-26T13:35:29.772Z,13.73
2022-09-26T13:38:34.735Z,15.38
2022-09-26T13:41:30.205Z,15.18
2022-09-26T13:44:25.125Z,15.00
2022-09-26T13:47:16.740Z,13.30
2022-09-26T13:50:18.563Z,15.48
2022-09-26T13:52:52.500Z,15.13
2022-09-26T13:55:21.757Z,12.77
2022-09-26T13:57:59.939Z,13.73
2022-09-26T14:00:38.607Z,12.80
2022-09-26T14:03:13.315Z,12.05
2022-09-26T14:05:43.679Z,11.73
2022-09-26T14:08:44.704Z,12.48
2022-09-26T14:11:30.493Z,14.13
2022-09-26T14:14:19.347Z,13.02
2022-09-26T14:16:53.907Z,12.77
2022-09-26T14:19:36.285Z,12.90
2022-09-26T14:22:21.361Z,12.30
2022-09-26T14:24:52.440Z,13.65
2022-09-26T14:27:19.176Z,12.18
2022-09-26T14:30:01.457Z,13.15
2022-09-26T14:32:37.897Z,11.77
2022-09-26T14:35:35.432Z,10.73
2022-09-26T14:38:16.020Z,9.73
2022-09-26T14:40:55.679Z,10.48
2022-09-26T14:43:25.156Z,10.93
2022-09-26T14:46:05.912Z,10.45
2022-09-26T14:48:40.677Z,10.70
2022-09-26T14:51:29.155Z,11.07
2022-09-26T14:53:56.241Z,10.82
2022-09-26T14:56:37.178Z,9.85
2022-09-26T14:59:25.697Z,10.77
2022-09-26T15:02:21.137Z,10.15
2022-09-26T15:05:15.288Z,10.30
2022-09-26T15:07:46.662Z,10.75
2022-09-26T15:10:13.909Z,9.82
2022-09-26T15:12:59.605Z,9.80
2022-09-26T15:15:49.992Z,8.73
2022-09-26T15:18:27.445Z,10.23
2022-09-26T15:21:03.996Z,8.68
2022-09-26T15:23:47.353Z,10.15
2022-09-26T15:26:15.997Z,7.97
2022-09-26T15:28:45.277Z,6.15
2022-09-26T15:31:23.869Z,6.07
2022-09-26T15:34:04.433Z,6.15
2022-09-26T15:36:34.973Z,4.43
2022-09-26T15:39:09.337Z,4.72
2022-09-26T15:42:03.400Z,4.63
2022-09-26T15:44:31.380Z,5.10
2022-09-26T15:46:58.381Z,4.30
2022-09-26T15:49:28.515Z,4.30
2022-09-26T15:51:58.011Z,4.57
2022-09-26T15:54:30.553Z,4.55
2022-09-26T15:57:01.941Z,4.25
2022-09-26T15:59:40.664Z,4.15
2022-09-26T16:02:23.013Z,4.18
2022-09-26T16:04:52.009Z,4.23
2022-09-26T16:07:25.069Z,5.30
2022-09-26T16:09:52.562Z,4.55
2022-09-26T16:12:22.611Z,5.78
2022-09-26T16:14:54.840Z,7.18
2022-09-26T16:17:24.710Z,6.28
2022-09-26T16:19:57.164Z,5.75
2022-09-26T16:25:27.715Z,5.40
2022-09-26T16:27:58.327Z,5.60
2022-09-26T16:30:31.046Z,5.70
2022-09-26T16:33:24.022Z,4.90
2022-09-26T16:35:54.527Z,5.53
2022-09-26T16:38:29.224Z,5.60
2022-09-26T16:41:27.272Z,4.85
2022-09-26T16:44:24.399Z,4.78
2022-09-26T16:46:58.973Z,5.18
2022-09-26T16:52:10.825Z,4.65
2022-09-26T16:54:37.805Z,4.43
2022-09-26T16:57:05.608Z,3.53
2022-09-26T16:59:35.400Z,4.85
2022-09-26T17:02:03.200Z,5.45
2022-09-26T17:04:33.639Z,3.55
2022-09-26T17:07:11.403Z,3.53
2022-09-26T17:09:41.275Z,4.07
2022-09-26T17:12:22.657Z,3.92
2022-09-26T17:14:56.588Z,3.72
2022-09-26T17:17:25.836Z,3.80
2022-09-26T17:19:59.047Z,3.28
2022-09-26T17:22:28.001Z,3.35
2022-09-26T17:24:55.057Z,3.90
2022-09-26T17:27:27.118Z,3.45
2022-09-26T17:29:59.588Z,3.30
2022-09-26T17:32:39.457Z,3.65
2022-09-26T17:35:16.760Z,3.83
2022-09-26T17:37:43.684Z,4.20
2022-09-26T17:40:18.936Z,3.63
2022-09-26T17:42:46.514Z,3.83
2022-09-26T17:45:13.960Z,3.88
2022-09-26T17:47:43.648Z,4.07
2022-09-26T17:50:32.354Z,4.32
2022-09-26T17:53:02.111Z,3.85
2022-09-26T17:55:29.785Z,4.32
2022-09-26T17:57:57.706Z,3.90
2022-09-26T18:00:25.296Z,3.95
2022-09-26T18:03:00.397Z,4.25
2022-09-26T18:05:31.699Z,4.93
2022-09-26T18:08:04.109Z,5.30
2022-09-26T18:13:12.904Z,6.50
2022-09-26T18:15:40.151Z,6.60
2022-09-26T18:18:16.958Z,6.68
2022-09-26T18:20:45.574Z,6.80
2022-09-26T18:23:20.583Z,6.50
2022-09-26T18:25:50.641Z,6.90
2022-09-26T18:28:20.987Z,7.70
2022-09-26T18:30:57.801Z,7.13
2022-09-26T18:33:27.868Z,7.75
2022-09-26T18:35:55.198Z,8.55
2022-09-26T18:38:22.287Z,7.40
2022-09-26T18:40:54.806Z,7.30
2022-09-26T18:45:53.165Z,8.32
2022-09-26T18:48:31.663Z,6.18
2022-09-26T18:51:00.991Z,5.93
2022-09-26T18:53:30.297Z,5.88
2022-09-26T18:56:15.752Z,5.88
2022-09-26T18:58:42.756Z,8.98
2022-09-26T19:01:21.430Z,9.18
2022-09-26T19:03:48.747Z,12.25
2022-09-26T19:06:19.690Z,11.75
2022-09-26T19:08:49.697Z,11.93
2022-09-26T19:11:22.155Z,11.52
2022-09-26T19:16:26.631Z,12.00
2022-09-26T19:18:53.541Z,12.27
2022-09-26T19:21:34.216Z,11.57
2022-09-26T19:24:20.298Z,9.07
2022-09-26T19:26:55.412Z,9.60
2022-09-26T19:29:31.425Z,9.65
2022-09-26T19:31:58.807Z,9.13
2022-09-26T19:34:30.442Z,9.65
2022-09-26T19:37:01.384Z,8.90
2022-09-26T19:39:28.542Z,8.82
2022-09-26T19:41:55.492Z,10.00
2022-09-26T19:44:24.336Z,8.85
2022-09-26T19:46:51.469Z,8.15
2022-09-26T19:49:19.852Z,8.18
2022-09-26T19:51:47.347Z,8.55
2022-09-26T19:54:17.589Z,7.75
2022-09-26T19:56:45.655Z,7.85
2022-09-26T19:59:14.412Z,9.05
2022-09-26T20:01:44.046Z,9.48
2022-09-26T20:04:17.345Z,7.95
2022-09-26T20:06:45.110Z,8.30
2022-09-26T20:09:18.003Z,9.55
2022-09-26T20:11:45.220Z,9.02
2022-09-26T20:14:24.624Z,9.70
2022-09-26T20:16:53.858Z,9.50
2022-09-26T20:19:45.225Z,9.70
2022-09-26T20:22:15.534Z,9.48
2022-09-26T20:24:43.855Z,11.30
2022-09-26T20:27:21.900Z,10.93
2022-09-26T20:30:10.162Z,11.48
2022-09-26T20:32:37.517Z,14.40
2022-09-26T20:35:05.092Z,15.05
2022-09-26T20:37:41.683Z,15.50
2022-09-26T20:40:21.034Z,15.73
2022-09-26T20:42:50.825Z,15.73
2022-09-26T20:45:22.445Z,15.70
2022-09-26T20:47:49.420Z,17.67
2022-09-26T20:50:19.284Z,17.83
2022-09-26T20:52:48.277Z,20.27
2022-09-26T20:55:17.978Z,22.95
2022-09-26T20:57:45.484Z,23.95
2022-09-26T21:00:17.033Z,26.17
2022-09-26T21:02:45.615Z,26.77
2022-09-26T21:05:18.355Z,25.25
2022-09-26T21:07:45.810Z,27.90
2022-09-26T21:10:29.493Z,27.45
2022-09-26T21:12:57.716Z,26.88
2022-09-26T21:15:29.912Z,28.08
2022-09-26T21:17:57.772Z,25.40
2022-09-26T21:20:30.817Z,28.38
2022-09-26T21:23:18.384Z,27.08
2022-09-26T21:25:45.268Z,25.67
2022-09-26T21:28:21.141Z,23.52
2022-09-26T21:30:49.122Z,14.70
2022-09-26T21:33:21.746Z,12.35
2022-09-26T21:35:49.005Z,10.77
2022-09-26T21:38:17.925Z,7.35
2022-09-26T21:40:47.371Z,5.40
2022-09-26T21:43:22.025Z,4.18
2022-09-26T21:45:49.075Z,3.13
